Time;durP1;ratioP1;P1;durP2;ratioP2;P2;SDS_P1;SDS_P2;PMS_P1;PMS_P2;Temp;Humidity;BMP_temperature;BMP_pressure;BME280_temperature;BME280_humidity;BME280_pressure;Samples;Min_cycle;Max_cycle;Signal;HPM_P1;HPM_P2
2021/01/14 04:08:01;;;;;;;4.90;4.50;;;2.80;99.90;;;;;;5887765;23;20233;-75
2021/01/14 04:10:27;;;;;;;5.95;4.53;;;2.80;99.90;;;;;;4980237;28;20197;-74
2021/01/14 04:12:53;;;;;;;4.95;4.13;;;2.80;99.90;;;;;;4992642;28;20229;-73
2021/01/14 04:15:19;;;;;;;3.90;3.60;;;2.80;99.90;;;;;;4994384;28;20173;-74
2021/01/14 04:17:45;;;;;;;4.07;3.78;;;2.80;99.90;;;;;;4994623;28;20184;-74
2021/01/14 04:20:11;;;;;;;4.07;3.47;;;2.80;99.90;;;;;;5012251;28;20212;-75
2021/01/14 04:22:36;;;;;;;4.38;3.15;;;2.80;99.90;;;;;;5012103;28;20203;-74
2021/01/14 04:25:02;;;;;;;3.28;2.45;;;2.80;99.90;;;;;;5011805;28;20635;-75
2021/01/14 04:27:30;;;;;;;3.28;2.92;;;2.80;99.90;;;;;;4994324;28;20759;-74
2021/01/14 04:29:55;;;;;;;2.60;2.40;;;2.70;99.90;;;;;;5012050;28;20651;-74
2021/01/14 04:32:22;;;;;;;2.67;2.47;;;2.70;99.90;;;;;;5011703;28;20168;-74
2021/01/14 04:34:48;;;;;;;2.33;2.05;;;2.70;99.90;;;;;;4994218;28;20192;-75
2021/01/14 04:37:13;;;;;;;2.22;2.03;;;2.70;99.90;;;;;;5012042;28;20558;-75
2021/01/14 04:39:39;;;;;;;3.08;2.15;;;2.70;99.90;;;;;;5011715;28;20228;-74
2021/01/14 04:42:09;;;;;;;2.63;2.15;;;2.70;99.90;;;;;;5012178;28;20212;-75
2021/01/14 04:44:34;;;;;;;1.95;1.80;;;2.70;99.90;;;;;;4994305;28;20208;-73
2021/01/14 04:47:07;;;;;;;2.75;2.22;;;2.70;99.90;;;;;;5011862;28;20209;-74
2021/01/14 04:49:33;;;;;;;2.30;2.10;;;2.70;99.90;;;;;;4994210;28;20201;-73
2021/01/14 04:52:06;;;;;;;2.88;2.28;;;2.70;99.90;;;;;;5011931;28;20593;-73
2021/01/14 04:54:34;;;;;;;3.47;1.90;;;2.70;99.90;;;;;;5011662;28;20283;-74
2021/01/14 04:57:18;;;;;;;3.03;2.00;;;2.70;99.90;;;;;;5012291;28;20173;-73
2021/01/14 04:59:52;;;;;;;4.82;2.10;;;2.70;99.90;;;;;;5011934;28;20309;-73
2021/01/14 05:02:23;;;;;;;2.00;1.77;;;2.70;99.90;;;;;;4994187;28;20177;-73
2021/01/14 05:04:51;;;;;;;2.78;1.90;;;2.70;99.90;;;;;;4994219;28;20276;-73
2021/01/14 05:07:47;;;;;;;1.83;1.50;;;2.70;99.90;;;;;;5011432;28;20196;-73
2021/01/14 05:10:21;;;;;;;2.88;1.67;;;2.70;99.90;;;;;;4979086;28;20206;-74
2021/01/14 05:12:47;;;;;;;2.13;1.95;;;2.70;99.90;;;;;;4992060;28;20173;-73
2021/01/14 05:15:15;;;;;;;2.30;1.63;;;2.70;99.90;;;;;;4974883;28;20178;-75
2021/01/14 05:17:41;;;;;;;1.50;1.40;;;2.70;99.90;;;;;;4992925;28;20174;-74
2021/01/14 05:20:07;;;;;;;2.95;1.98;;;2.70;99.90;;;;;;4995684;28;20636;-74
2021/01/14 05:22:37;;;;;;;2.25;1.73;;;2.70;99.90;;;;;;4995526;28;20200;-73
2021/01/14 05:25:07;;;;;;;3.03;1.83;;;2.70;99.90;;;;;;4995271;28;20176;-74
2021/01/14 05:27:33;;;;;;;2.10;1.90;;;2.70;99.90;;;;;;4977768;28;20312;-74
2021/01/14 05:30:05;;;;;;;2.28;1.90;;;2.70;99.90;;;;;;4977944;28;20209;-74
2021/01/14 05:32:35;;;;;;;2.75;1.95;;;2.70;99.90;;;;;;4995135;28;20170;-74
2021/01/14 05:35:01;;;;;;;2.00;1.80;;;2.70;99.90;;;;;;4995511;28;20580;-74
2021/01/14 05:37:28;;;;;;;3.53;2.30;;;2.70;99.90;;;;;;4995384;28;20182;-74
2021/01/14 05:39:53;;;;;;;3.72;2.35;;;2.60;99.90;;;;;;4977377;28;20735;-74
2021/01/14 05:42:19;;;;;;;3.90;2.08;;;2.60;99.90;;;;;;4977853;28;20273;-74
2021/01/14 05:44:45;;;;;;;2.60;1.90;;;2.60;99.90;;;;;;4994920;28;20648;-74
2021/01/14 05:47:25;;;;;;;2.88;1.92;;;2.60;99.90;;;;;;4977169;28;20213;-75
2021/01/14 05:50:04;;;;;;;9.10;2.30;;;2.60;99.90;;;;;;4977512;28;20205;-74
2021/01/14 05:52:31;;;;;;;2.17;1.88;;;2.60;99.90;;;;;;4995454;28;20178;-74
2021/01/14 05:55:01;;;;;;;2.60;2.10;;;2.50;99.90;;;;;;4977177;28;20200;-74
2021/01/14 05:57:30;;;;;;;3.40;1.95;;;2.50;99.90;;;;;;4977613;28;20170;-74
2021/01/14 05:59:59;;;;;;;2.15;2.00;;;2.50;99.90;;;;;;4965474;28;20178;-74
2021/01/14 06:02:31;;;;;;;2.05;1.77;;;2.50;99.90;;;;;;4938811;29;20196;-74
2021/01/14 06:04:58;;;;;;;2.13;1.92;;;2.40;99.90;;;;;;4955466;29;20199;-74
2021/01/14 06:07:37;;;;;;;2.70;1.92;;;2.50;99.90;;;;;;4955685;29;20218;-74
2021/01/14 06:10:03;;;;;;;2.20;1.95;;;2.50;99.90;;;;;;4954731;28;20329;-73
2021/01/14 06:12:29;;;;;;;2.13;1.90;;;2.40;99.90;;;;;;4983621;28;20264;-74
2021/01/14 06:14:55;;;;;;;2.53;1.63;;;2.40;99.90;;;;;;4985435;28;20562;-75
2021/01/14 06:17:33;;;;;;;2.53;1.60;;;2.50;99.90;;;;;;4980755;28;20167;-74
2021/01/14 06:20:07;;;;;;;5.65;2.05;;;2.20;99.90;;;;;;4980362;28;20189;-74
2021/01/14 06:22:36;;;;;;;1.73;1.60;;;2.50;99.90;;;;;;4977631;28;20300;-75
2021/01/14 06:25:04;;;;;;;2.70;1.85;;;2.20;99.90;;;;;;4972165;28;20182;-73
2021/01/14 06:27:32;;;;;;;1.88;1.77;;;2.10;99.90;;;;;;4992818;28;20695;-72
2021/01/14 06:30:08;;;;;;;2.10;1.70;;;2.40;99.90;;;;;;4975371;28;20663;-72
2021/01/14 06:32:41;;;;;;;2.97;1.90;;;2.30;99.90;;;;;;4972059;28;20169;-72
2021/01/14 06:35:08;;;;;;;2.45;1.98;;;2.30;99.90;;;;;;4980081;28;20266;-73
2021/01/14 06:37:38;;;;;;;4.50;1.80;;;2.40;99.90;;;;;;4970202;28;20178;-72
2021/01/14 06:40:06;;;;;;;2.15;1.83;;;2.40;99.90;;;;;;4992884;28;20229;-73
2021/01/14 06:42:34;;;;;;;3.67;2.20;;;2.40;99.90;;;;;;4976330;28;20174;-73
2021/01/14 06:45:07;;;;;;;2.75;1.90;;;2.40;99.90;;;;;;4967022;28;20592;-73
2021/01/14 06:47:41;;;;;;;2.92;2.00;;;2.10;99.90;;;;;;4991323;28;20308;-73
2021/01/14 06:50:16;;;;;;;2.85;2.03;;;2.40;99.90;;;;;;4973238;28;20193;-73
2021/01/14 06:53:03;;;;;;;6.60;2.33;;;2.40;99.90;;;;;;4969596;28;20173;-73
2021/01/14 06:55:33;;;;;;;4.57;2.33;;;2.40;99.90;;;;;;4974109;28;20185;-73
2021/01/14 06:58:13;;;;;;;3.88;2.10;;;2.40;99.90;;;;;;4974827;28;20198;-73
2021/01/14 07:00:45;;;;;;;3.65;2.00;;;2.40;99.90;;;;;;4993055;28;20188;-73
2021/01/14 07:03:14;;;;;;;1.90;1.70;;;2.30;99.90;;;;;;4975682;28;20292;-74
2021/01/14 07:05:51;;;;;;;3.25;2.08;;;2.30;99.90;;;;;;4993436;28;20174;-73
2021/01/14 07:08:32;;;;;;;1.83;1.67;;;2.30;99.90;;;;;;4975195;28;20292;-73
2021/01/14 07:11:02;;;;;;;2.50;1.98;;;2.30;99.90;;;;;;4993384;28;20204;-73
2021/01/14 07:13:51;;;;;;;1.73;1.45;;;2.30;99.90;;;;;;4975727;28;20209;-73
2021/01/14 07:16:21;;;;;;;1.50;1.40;;;2.30;99.90;;;;;;4975871;28;20181;-73
2021/01/14 07:18:49;;;;;;;3.42;1.75;;;2.30;99.90;;;;;;4993239;28;20189;-73
2021/01/14 07:21:27;;;;;;;2.17;1.85;;;2.30;99.90;;;;;;4993228;28;20170;-73
2021/01/14 07:23:53;;;;;;;2.53;1.48;;;2.30;99.90;;;;;;4975237;28;20189;-73
2021/01/14 07:26:21;;;;;;;1.42;1.33;;;2.30;99.90;;;;;;4975723;28;20637;-74
2021/01/14 07:28:47;;;;;;;4.13;1.50;;;2.40;99.90;;;;;;4992970;28;20209;-73
2021/01/14 07:31:19;;;;;;;2.13;1.60;;;2.40;99.90;;;;;;4993103;28;20240;-73
2021/01/14 07:33:45;;;;;;;2.90;1.35;;;2.40;99.90;;;;;;4975495;28;20198;-73
2021/01/14 07:36:16;;;;;;;3.05;2.22;;;2.40;99.90;;;;;;4975486;28;20174;-73
2021/01/14 07:38:47;;;;;;;2.55;1.40;;;2.30;99.90;;;;;;4975100;28;20229;-73
2021/01/14 07:41:13;;;;;;;1.58;1.05;;;2.40;99.90;;;;;;4992825;28;20224;-73
2021/01/14 07:43:39;;;;;;;2.70;1.58;;;2.30;99.90;;;;;;4992911;28;20239;-73
2021/01/14 07:46:22;;;;;;;2.45;1.58;;;2.40;99.90;;;;;;4993087;28;20194;-73
2021/01/14 07:48:50;;;;;;;1.90;1.30;;;2.40;99.90;;;;;;4992509;28;20209;-73
2021/01/14 07:51:17;;;;;;;3.92;1.70;;;2.40;99.90;;;;;;4993101;28;20216;-73
2021/01/14 07:54:02;;;;;;;3.92;1.67;;;2.40;99.90;;;;;;4992702;28;20452;-73
2021/01/14 07:56:28;;;;;;;3.05;1.50;;;2.40;99.90;;;;;;4975551;28;20178;-73
2021/01/14 07:58:58;;;;;;;1.83;1.60;;;2.40;99.90;;;;;;4992710;28;20200;-73
2021/01/14 08:01:23;;;;;;;2.33;1.35;;;2.40;99.90;;;;;;4992928;28;20169;-73
2021/01/14 08:03:50;;;;;;;1.60;1.50;;;2.40;99.90;;;;;;4992655;28;20194;-73
2021/01/14 08:06:19;;;;;;;4.03;1.60;;;2.40;99.90;;;;;;4975428;28;20670;-72
2021/01/14 08:08:55;;;;;;;3.50;1.50;;;2.40;99.90;;;;;;4974553;28;20238;-73
2021/01/14 08:11:24;;;;;;;3.30;1.73;;;2.40;99.90;;;;;;4975343;28;20220;-73
2021/01/14 08:14:11;;;;;;;3.60;1.50;;;2.40;99.90;;;;;;4975127;28;20252;-73
2021/01/14 08:16:50;;;;;;;5.35;1.63;;;2.20;99.90;;;;;;4992614;28;20169;-73
2021/01/14 08:19:37;;;;;;;5.55;1.98;;;2.40;99.90;;;;;;4975091;28;20189;-73
2021/01/14 08:22:09;;;;;;;1.80;1.30;;;2.40;99.90;;;;;;4975459;28;20379;-73
2021/01/14 08:24:41;;;;;;;2.40;1.63;;;2.40;99.90;;;;;;4974711;28;20198;-73
2021/01/14 08:27:08;;;;;;;4.25;1.75;;;2.40;99.90;;;;;;4975182;28;20244;-73
2021/01/14 08:30:14;;;;;;;3.80;1.70;;;2.50;99.90;;;;;;4975177;28;20190;-73
2021/01/14 08:32:50;;;;;;;2.35;1.52;;;2.50;99.90;;;;;;4992513;28;20167;-73
2021/01/14 08:35:15;;;;;;;2.60;1.35;;;2.60;99.90;;;;;;4992455;28;20245;-73
2021/01/14 08:37:51;;;;;;;5.43;1.50;;;2.70;99.90;;;;;;4992489;28;20281;-73
2021/01/14 08:40:23;;;;;;;2.60;1.80;;;2.70;99.90;;;;;;4992462;28;20172;-73
2021/01/14 08:43:03;;;;;;;3.78;1.80;;;2.80;99.90;;;;;;4992988;28;20232;-73
2021/01/14 08:45:50;;;;;;;2.50;1.50;;;2.90;99.90;;;;;;4974394;28;20553;-73
2021/01/14 08:48:30;;;;;;;2.70;1.30;;;3.00;99.90;;;;;;4992113;28;20715;-73
2021/01/14 08:50:55;;;;;;;2.80;1.52;;;3.10;99.90;;;;;;4974891;28;20264;-73
2021/01/14 08:53:21;;;;;;;3.63;1.30;;;3.20;99.90;;;;;;4993933;28;20264;-73
2021/01/14 08:56:07;;;;;;;3.90;1.58;;;3.30;99.90;;;;;;4996129;28;20654;-73
2021/01/14 08:58:36;;;;;;;3.38;1.77;;;3.30;99.90;;;;;;4978485;28;20197;-73
2021/01/14 09:01:03;;;;;;;2.90;1.95;;;3.40;99.90;;;;;;4995992;28;20173;-73
2021/01/14 09:03:29;;;;;;;1.73;1.60;;;3.50;99.90;;;;;;4996063;28;20190;-73
2021/01/14 09:05:55;;;;;;;5.43;2.28;;;3.50;99.90;;;;;;4978454;28;20644;-73
2021/01/14 09:08:21;;;;;;;3.28;1.90;;;3.60;99.90;;;;;;4994930;28;20233;-72
2021/01/14 09:10:52;;;;;;;4.32;2.38;;;3.60;99.90;;;;;;4978529;28;20307;-73
2021/01/14 09:13:26;;;;;;;1.90;1.75;;;3.60;99.90;;;;;;4978131;28;20263;-73
2021/01/14 09:15:55;;;;;;;1.58;1.30;;;3.60;99.90;;;;;;4995863;28;20182;-73
2021/01/14 09:18:41;;;;;;;2.60;1.90;;;3.60;99.90;;;;;;4995538;28;20563;-72
2021/01/14 09:21:08;;;;;;;2.78;1.92;;;3.60;99.90;;;;;;4978278;28;20184;-73
2021/01/14 09:23:36;;;;;;;2.78;1.70;;;3.70;99.90;;;;;;4977499;28;20562;-73
2021/01/14 09:26:04;;;;;;;4.78;2.08;;;3.70;99.90;;;;;;4995554;28;20561;-73
2021/01/14 09:28:31;;;;;;;2.95;2.22;;;3.70;99.90;;;;;;4977774;28;20316;-73
2021/01/14 09:31:02;;;;;;;5.22;1.83;;;3.70;99.90;;;;;;4995602;28;20174;-73
2021/01/14 09:33:31;;;;;;;4.78;2.05;;;3.70;99.90;;;;;;4977757;28;20202;-73
2021/01/14 09:36:18;;;;;;;2.75;1.90;;;3.60;99.90;;;;;;4977975;28;20185;-73
2021/01/14 09:38:46;;;;;;;2.75;1.83;;;3.60;99.90;;;;;;4994449;28;20193;-73
2021/01/14 09:41:13;;;;;;;2.63;1.90;;;3.60;99.90;;;;;;4977756;28;20308;-73
2021/01/14 09:43:42;;;;;;;4.25;2.50;;;3.50;99.90;;;;;;4994879;28;20663;-73
2021/01/14 09:46:13;;;;;;;4.43;1.95;;;3.50;99.90;;;;;;4977863;28;20204;-73
2021/01/14 09:48:39;;;;;;;2.97;1.80;;;3.50;99.90;;;;;;4994955;28;20217;-73
2021/01/14 09:51:12;;;;;;;5.85;2.05;;;3.40;99.90;;;;;;4977708;28;20170;-73
2021/01/14 09:53:43;;;;;;;4.25;2.25;;;3.40;99.90;;;;;;4977069;28;20201;-73
2021/01/14 09:56:13;;;;;;;1.95;1.40;;;3.40;99.90;;;;;;4977476;28;20197;-74
2021/01/14 09:58:42;;;;;;;2.47;1.98;;;3.40;99.90;;;;;;4994814;28;20922;-74
2021/01/14 10:01:12;;;;;;;1.90;1.40;;;3.40;99.90;;;;;;4977499;28;20177;-74
2021/01/14 10:03:39;;;;;;;4.55;2.17;;;3.40;99.90;;;;;;4994449;28;20244;-74
2021/01/14 10:06:05;;;;;;;3.83;2.05;;;3.30;99.90;;;;;;4977424;28;20166;-74
2021/01/14 10:08:31;;;;;;;2.05;1.80;;;3.30;99.90;;;;;;4976506;28;20300;-74
2021/01/14 10:10:57;;;;;;;6.68;2.15;;;3.30;99.90;;;;;;4977088;28;20261;-74
2021/01/14 10:13:23;;;;;;;3.28;1.65;;;3.30;99.90;;;;;;4994678;28;20205;-74
2021/01/14 10:15:49;;;;;;;4.07;1.60;;;3.30;99.90;;;;;;4977102;28;20626;-73
2021/01/14 10:18:23;;;;;;;2.35;1.67;;;3.30;99.90;;;;;;4977091;28;20285;-73
2021/01/14 10:20:56;;;;;;;4.13;1.83;;;3.30;99.90;;;;;;4976935;28;20576;-73
2021/01/14 10:23:25;;;;;;;3.78;1.63;;;3.20;99.90;;;;;;4976457;28;20626;-74
2021/01/14 10:25:52;;;;;;;5.07;2.40;;;3.30;99.90;;;;;;4976669;28;20182;-74
2021/01/14 10:28:18;;;;;;;4.18;1.80;;;3.30;99.90;;;;;;4994250;28;20213;-73
2021/01/14 10:30:43;;;;;;;2.22;1.83;;;3.30;99.90;;;;;;4994193;28;20253;-73
2021/01/14 10:33:10;;;;;;;3.08;1.63;;;3.30;99.90;;;;;;4994274;28;20668;-73
2021/01/14 10:35:37;;;;;;;2.85;1.70;;;3.30;99.90;;;;;;4976288;28;20174;-73
2021/01/14 10:38:16;;;;;;;4.93;1.58;;;3.30;99.90;;;;;;4976202;28;20265;-74
2021/01/14 10:40:44;;;;;;;3.92;1.52;;;3.30;99.90;;;;;;4994203;28;20216;-74
2021/01/14 10:43:11;;;;;;;1.60;1.30;;;3.30;99.90;;;;;;4976611;28;20206;-73
2021/01/14 10:45:39;;;;;;;2.50;1.60;;;3.30;99.90;;;;;;4993954;28;20170;-73
2021/01/14 10:48:15;;;;;;;4.63;2.13;;;3.30;99.90;;;;;;4993862;28;20209;-73
2021/01/14 10:50:41;;;;;;;1.90;1.70;;;3.30;99.90;;;;;;4993679;28;20185;-73
2021/01/14 10:53:07;;;;;;;3.97;2.38;;;3.40;99.90;;;;;;4993639;28;20217;-73
2021/01/14 10:55:33;;;;;;;2.35;1.83;;;3.40;99.90;;;;;;4994045;28;20643;-73
2021/01/14 10:58:06;;;;;;;2.70;1.52;;;3.40;99.90;;;;;;4975918;28;20296;-72
2021/01/14 11:00:41;;;;;;;2.05;1.73;;;3.40;99.90;;;;;;4993782;28;20162;-73
2021/01/14 11:03:09;;;;;;;2.42;1.45;;;3.40;99.90;;;;;;4993593;28;20193;-73
2021/01/14 11:05:45;;;;;;;2.20;1.70;;;3.40;99.90;;;;;;4975982;28;20544;-73
2021/01/14 11:08:38;;;;;;;3.15;1.63;;;3.40;99.90;;;;;;4992999;28;20308;-72
2021/01/14 11:11:05;;;;;;;2.47;2.00;;;3.50;99.90;;;;;;4983798;28;20182;-73
2021/01/14 11:13:42;;;;;;;3.05;1.45;;;3.40;99.90;;;;;;4992986;28;20247;-73
2021/01/14 11:16:10;;;;;;;3.35;1.75;;;3.50;99.90;;;;;;4975715;28;20240;-73
2021/01/14 11:18:43;;;;;;;4.20;1.80;;;3.40;99.90;;;;;;4975676;28;20220;-73
2021/01/14 11:21:11;;;;;;;3.13;1.40;;;3.50;99.90;;;;;;4993276;28;20174;-73
2021/01/14 11:23:37;;;;;;;2.25;1.60;;;3.40;99.90;;;;;;4992820;28;20216;-73
2021/01/14 11:26:07;;;;;;;3.00;1.50;;;3.50;99.90;;;;;;4976006;28;20205;-74
2021/01/14 11:28:38;;;;;;;2.33;1.90;;;3.50;99.90;;;;;;4975436;28;20696;-73
2021/01/14 11:31:05;;;;;;;2.78;1.83;;;3.50;99.90;;;;;;4993427;28;20158;-73
2021/01/14 11:33:31;;;;;;;2.22;1.70;;;3.40;99.90;;;;;;4975447;28;20205;-73
2021/01/14 11:35:56;;;;;;;3.10;2.10;;;3.40;99.90;;;;;;4983788;28;20170;-71
2021/01/14 11:38:22;;;;;;;4.15;1.75;;;3.40;99.90;;;;;;4982279;28;20261;-71
2021/01/14 11:40:49;;;;;;;5.40;2.22;;;3.50;99.90;;;;;;4987077;28;20209;-73
2021/01/14 11:43:15;;;;;;;2.60;1.92;;;3.50;99.90;;;;;;4991242;28;20205;-73
2021/01/14 11:45:41;;;;;;;2.45;1.65;;;3.40;99.90;;;;;;4992872;28;20225;-72
2021/01/14 11:48:08;;;;;;;2.95;2.08;;;3.40;99.90;;;;;;4992884;28;20213;-73
2021/01/14 11:50:34;;;;;;;3.33;1.90;;;3.40;99.90;;;;;;4975535;28;20188;-73
2021/01/14 11:53:00;;;;;;;4.30;2.00;;;3.40;99.90;;;;;;4992545;28;20280;-72
2021/01/14 11:55:25;;;;;;;4.20;1.92;;;3.40;99.90;;;;;;4992665;28;20258;-73
2021/01/14 11:57:51;;;;;;;2.60;1.88;;;3.40;99.90;;;;;;4992752;28;20252;-72
2021/01/14 12:00:17;;;;;;;7.45;1.95;;;3.40;99.90;;;;;;4992716;28;20254;-73
2021/01/14 12:02:44;;;;;;;3.35;1.85;;;3.40;99.90;;;;;;4992714;28;20174;-73
2021/01/14 12:05:10;;;;;;;3.42;2.00;;;3.30;99.90;;;;;;4992792;28;20197;-74
2021/01/14 12:07:36;;;;;;;3.08;2.15;;;3.30;99.90;;;;;;4992779;28;20209;-73
2021/01/14 12:10:03;;;;;;;3.35;1.90;;;3.30;99.90;;;;;;4992233;28;20241;-73
2021/01/14 12:12:28;;;;;;;1.52;1.42;;;3.30;99.90;;;;;;4975152;28;20644;-74
2021/01/14 12:14:54;;;;;;;3.20;1.90;;;3.30;99.90;;;;;;4992415;28;20197;-72
2021/01/14 12:17:19;;;;;;;2.63;2.20;;;3.30;99.90;;;;;;4992758;28;20170;-72
2021/01/14 12:19:45;;;;;;;2.70;1.70;;;3.30;99.90;;;;;;4978872;28;20407;-72
2021/01/14 12:22:11;;;;;;;3.17;1.63;;;3.20;99.90;;;;;;4983864;28;20201;-72
2021/01/14 12:24:37;;;;;;;2.05;1.75;;;3.20;99.90;;;;;;4992415;28;20194;-72
2021/01/14 12:27:03;;;;;;;2.97;1.75;;;3.20;99.90;;;;;;4980421;28;20711;-73
2021/01/14 12:29:28;;;;;;;4.30;2.10;;;3.20;99.90;;;;;;4977051;28;20213;-72
2021/01/14 12:31:55;;;;;;;3.35;1.80;;;3.20;99.90;;;;;;4984609;28;20638;-72
2021/01/14 12:34:20;;;;;;;2.80;1.73;;;3.20;99.90;;;;;;4977141;28;20191;-71
2021/01/14 12:36:46;;;;;;;3.70;2.00;;;3.20;99.90;;;;;;4969685;28;20224;-72
2021/01/14 12:39:12;;;;;;;3.25;1.90;;;3.20;99.90;;;;;;4985941;28;20190;-77
2021/01/14 12:41:39;;;;;;;3.35;1.63;;;3.20;99.90;;;;;;4987016;28;20186;-77
2021/01/14 12:44:07;;;;;;;4.43;2.10;;;3.20;99.90;;;;;;4985919;28;20190;-77
2021/01/14 12:46:37;;;;;;;2.45;2.03;;;3.10;99.90;;;;;;4985792;28;20307;-77
2021/01/14 12:49:05;;;;;;;3.03;1.88;;;3.10;99.90;;;;;;4975994;28;20241;-78
2021/01/14 12:51:31;;;;;;;4.65;2.35;;;3.10;99.90;;;;;;4978623;28;20181;-76
2021/01/14 12:53:56;;;;;;;3.22;1.90;;;3.10;99.90;;;;;;4974691;28;20202;-79
2021/01/14 12:56:22;;;;;;;2.38;1.90;;;3.10;99.90;;;;;;4995877;28;20575;-77
2021/01/14 12:58:48;;;;;;;4.35;2.13;;;3.10;99.90;;;;;;4977058;28;20762;-78
2021/01/14 13:01:13;;;;;;;3.53;1.80;;;3.10;99.90;;;;;;4996053;28;20537;-77
2021/01/14 13:03:39;;;;;;;3.20;2.00;;;3.10;99.90;;;;;;4995681;28;20287;-78
2021/01/14 13:06:05;;;;;;;3.65;1.98;;;3.10;99.90;;;;;;4996107;28;20251;-77
2021/01/14 13:08:30;;;;;;;3.47;2.08;;;3.10;99.90;;;;;;4995006;28;20283;-79
2021/01/14 13:10:56;;;;;;;3.08;1.83;;;3.10;99.90;;;;;;4995857;28;20245;-78
2021/01/14 13:13:22;;;;;;;3.05;1.90;;;3.00;99.90;;;;;;4995484;28;20289;-79
2021/01/14 13:15:54;;;;;;;6.93;2.47;;;3.00;99.90;;;;;;4995249;28;20173;-77
2021/01/14 13:18:20;;;;;;;2.22;2.03;;;3.00;99.90;;;;;;4977602;28;20198;-79
2021/01/14 13:20:49;;;;;;;2.45;1.88;;;3.00;99.90;;;;;;4995126;28;20178;-78
2021/01/14 13:23:15;;;;;;;2.30;1.80;;;3.00;99.90;;;;;;4994485;28;20197;-75
2021/01/14 13:25:41;;;;;;;3.05;1.85;;;3.00;99.90;;;;;;4975196;28;20182;-76
2021/01/14 13:28:07;;;;;;;2.65;1.90;;;3.00;99.90;;;;;;4977601;28;20209;-75
2021/01/14 13:30:33;;;;;;;2.58;2.22;;;3.00;99.90;;;;;;4974721;28;20248;-77
2021/01/14 13:32:58;;;;;;;6.63;2.30;;;3.00;99.90;;;;;;4995266;28;20201;-75
2021/01/14 13:35:25;;;;;;;2.75;2.05;;;3.00;99.90;;;;;;4995362;28;20213;-74
2021/01/14 13:37:52;;;;;;;2.47;2.28;;;3.00;99.90;;;;;;4994460;28;20198;-74
2021/01/14 13:40:17;;;;;;;2.38;1.90;;;3.00;99.90;;;;;;4994851;28;20174;-75
2021/01/14 13:42:43;;;;;;;2.28;1.70;;;2.90;99.90;;;;;;4992189;28;20695;-75
2021/01/14 13:45:09;;;;;;;5.50;2.58;;;3.00;99.90;;;;;;4989551;28;20178;-75
2021/01/14 13:47:35;;;;;;;3.78;2.17;;;3.00;99.90;;;;;;4984517;28;20225;-74
2021/01/14 13:50:03;;;;;;;3.67;2.47;;;3.00;99.90;;;;;;4994826;28;20170;-74
2021/01/14 13:52:28;;;;;;;5.05;2.40;;;3.00;99.90;;;;;;4994324;28;20178;-74
2021/01/14 13:54:54;;;;;;;4.22;2.22;;;3.00;99.90;;;;;;4979479;28;20212;-75
2021/01/14 13:57:20;;;;;;;3.92;2.35;;;3.00;99.90;;;;;;4988212;28;20182;-74
2021/01/14 13:59:45;;;;;;;3.47;1.88;;;3.00;99.90;;;;;;4977197;28;20244;-75
2021/01/14 14:02:11;;;;;;;2.53;1.95;;;3.00;99.90;;;;;;5004831;28;20657;-76
2021/01/14 14:04:38;;;;;;;3.75;2.22;;;3.00;99.90;;;;;;4988349;28;20305;-74
2021/01/14 14:07:04;;;;;;;5.43;2.30;;;3.00;99.90;;;;;;5001395;28;20320;-75
2021/01/14 14:09:29;;;;;;;4.93;2.20;;;3.00;99.90;;;;;;5003551;28;20309;-75
2021/01/14 14:11:55;;;;;;;2.88;2.10;;;3.00;99.90;;;;;;5002909;28;20174;-74
2021/01/14 14:14:21;;;;;;;4.05;2.05;;;3.00;99.90;;;;;;4986641;28;20547;-76
2021/01/14 14:16:50;;;;;;;2.92;2.10;;;3.00;99.90;;;;;;4986884;28;20178;-75
2021/01/14 14:19:16;;;;;;;2.60;2.38;;;2.90;99.90;;;;;;4994310;28;20193;-74
2021/01/14 14:21:42;;;;;;;4.68;2.33;;;2.90;99.90;;;;;;5013396;28;20271;-75
2021/01/14 14:24:08;;;;;;;2.72;2.15;;;2.90;99.90;;;;;;4973796;28;20337;-75
2021/01/14 14:26:35;;;;;;;3.40;2.42;;;2.90;99.90;;;;;;4987282;28;20201;-74
2021/01/14 14:29:02;;;;;;;2.90;2.15;;;2.90;99.90;;;;;;4976712;28;20585;-75
2021/01/14 14:31:28;;;;;;;4.47;2.50;;;2.90;99.90;;;;;;4993982;28;20221;-74
2021/01/14 14:33:54;;;;;;;4.13;2.42;;;2.90;99.90;;;;;;4963114;28;20198;-75
2021/01/14 14:36:26;;;;;;;2.90;2.22;;;2.90;99.90;;;;;;4974514;28;20205;-74
2021/01/14 14:38:53;;;;;;;3.85;2.40;;;2.90;99.90;;;;;;4973571;28;20294;-74
2021/01/14 14:41:19;;;;;;;5.25;2.50;;;2.90;99.90;;;;;;4957448;28;20177;-75
2021/01/14 14:43:45;;;;;;;5.22;2.13;;;2.90;99.90;;;;;;4977092;28;20202;-74
2021/01/14 14:46:20;;;;;;;3.20;2.30;;;2.90;99.90;;;;;;4988339;28;20567;-75
2021/01/14 14:48:47;;;;;;;4.80;2.55;;;2.90;99.90;;;;;;4990856;28;20213;-75
2021/01/14 14:51:14;;;;;;;2.38;2.17;;;2.90;99.90;;;;;;4965388;28;20582;-75
2021/01/14 14:53:41;;;;;;;3.42;2.42;;;3.00;99.90;;;;;;4983980;28;20340;-76
2021/01/14 14:56:08;;;;;;;2.97;2.40;;;2.90;99.90;;;;;;4976147;28;20193;-75
2021/01/14 14:58:34;;;;;;;5.72;2.20;;;2.90;99.90;;;;;;4985830;28;20210;-75
2021/01/14 15:01:00;;;;;;;2.78;2.13;;;3.20;99.90;;;;;;4992002;28;20186;-74
2021/01/14 15:03:25;;;;;;;3.63;2.60;;;2.90;99.90;;;;;;4993217;28;20190;-80
2021/01/14 15:05:51;;;;;;;5.82;2.70;;;2.90;99.90;;;;;;4984722;28;20197;-75
2021/01/14 15:08:17;;;;;;;3.80;2.60;;;2.90;99.90;;;;;;4968417;28;20623;-75
2021/01/14 15:10:44;;;;;;;4.47;2.50;;;2.90;99.90;;;;;;4991060;28;20281;-76
2021/01/14 15:13:10;;;;;;;5.43;2.80;;;2.90;99.90;;;;;;4966252;28;20257;-76
2021/01/14 15:15:35;;;;;;;3.63;2.58;;;2.90;99.90;;;;;;4989987;28;20597;-75
2021/01/14 15:18:01;;;;;;;3.22;2.22;;;2.90;99.90;;;;;;4965849;28;20229;-75
2021/01/14 15:20:27;;;;;;;4.22;2.42;;;2.90;99.90;;;;;;4979677;28;20179;-75
2021/01/14 15:22:53;;;;;;;3.55;2.20;;;2.90;99.90;;;;;;4975756;28;20281;-75
2021/01/14 15:25:19;;;;;;;2.67;2.42;;;2.80;99.90;;;;;;4992969;28;20228;-75
2021/01/14 15:27:45;;;;;;;2.85;2.20;;;2.90;99.90;;;;;;4989245;28;20210;-75
2021/01/14 15:30:11;;;;;;;5.90;2.63;;;2.80;99.90;;;;;;4976252;28;20583;-74
2021/01/14 15:32:36;;;;;;;3.45;2.35;;;2.80;99.90;;;;;;4987394;28;20278;-75
2021/01/14 15:35:03;;;;;;;5.80;2.55;;;2.90;99.90;;;;;;4974920;28;20267;-75
2021/01/14 15:37:28;;;;;;;4.38;2.92;;;2.80;99.90;;;;;;4988506;28;20188;-80
2021/01/14 15:39:54;;;;;;;3.70;2.90;;;2.80;99.90;;;;;;4977523;28;20409;-81
2021/01/14 15:42:20;;;;;;;4.25;2.60;;;2.80;99.90;;;;;;4975577;28;20656;-78
2021/01/14 15:44:46;;;;;;;3.45;2.40;;;2.80;99.90;;;;;;4975091;28;20232;-78
2021/01/14 15:47:12;;;;;;;3.92;3.05;;;2.80;99.90;;;;;;4978440;28;20297;-81
2021/01/14 15:49:38;;;;;;;3.22;2.75;;;2.80;99.90;;;;;;4975195;28;20221;-79
2021/01/14 15:52:04;;;;;;;3.05;2.75;;;2.80;99.90;;;;;;4973502;28;20641;-78
2021/01/14 15:54:30;;;;;;;4.38;2.92;;;2.80;99.90;;;;;;4986736;28;20221;-77
2021/01/14 15:56:56;;;;;;;4.78;3.10;;;2.70;99.90;;;;;;4967701;28;20213;-78
2021/01/14 15:59:40;;;;;;;3.13;2.72;;;2.80;99.90;;;;;;4991633;28;20190;-76
2021/01/14 16:02:11;;;;;;;6.00;3.35;;;2.80;99.90;;;;;;4972946;28;20179;-78
2021/01/14 16:04:39;;;;;;;5.00;2.78;;;2.80;99.90;;;;;;4973401;28;20233;-78
2021/01/14 16:07:08;;;;;;;3.58;2.90;;;2.80;99.90;;;;;;4955791;28;20175;-78
2021/01/14 16:09:33;;;;;;;4.10;2.88;;;2.70;99.90;;;;;;4958769;28;20245;-78
2021/01/14 16:11:59;;;;;;;3.95;2.75;;;2.80;99.90;;;;;;4969395;28;20175;-79
2021/01/14 16:14:26;;;;;;;4.25;2.70;;;2.70;99.90;;;;;;4991093;28;20244;-78
2021/01/14 16:16:52;;;;;;;4.05;3.05;;;2.70;99.90;;;;;;4992852;28;20261;-78
2021/01/14 16:19:20;;;;;;;4.20;3.10;;;2.70;99.90;;;;;;4974739;28;20292;-78
2021/01/14 16:21:46;;;;;;;3.85;3.25;;;2.70;99.90;;;;;;4964871;28;20193;-75
2021/01/14 16:24:14;;;;;;;5.88;3.45;;;2.70;99.90;;;;;;4980613;28;20233;-74
2021/01/14 16:26:40;;;;;;;5.22;3.55;;;2.70;99.90;;;;;;4975065;28;20316;-76
2021/01/14 16:29:06;;;;;;;6.45;3.97;;;2.70;99.90;;;;;;4966977;28;20297;-74
2021/01/14 16:31:31;;;;;;;4.32;3.15;;;2.70;99.90;;;;;;4955677;28;20309;-75
2021/01/14 16:33:57;;;;;;;6.35;3.55;;;2.70;99.90;;;;;;4972779;28;20238;-76
2021/01/14 16:36:23;;;;;;;3.55;3.20;;;2.70;99.90;;;;;;4977653;28;20182;-76
2021/01/14 16:38:49;;;;;;;4.45;3.70;;;2.70;99.90;;;;;;4991740;28;20198;-76
2021/01/14 16:41:25;;;;;;;6.75;3.97;;;2.70;99.90;;;;;;4973031;28;20174;-75
2021/01/14 16:43:51;;;;;;;4.47;3.20;;;2.70;99.90;;;;;;4972693;28;20202;-74
2021/01/14 16:46:22;;;;;;;7.05;3.47;;;2.70;99.90;;;;;;4955525;28;20302;-76
2021/01/14 16:48:50;;;;;;;5.88;3.33;;;2.70;99.90;;;;;;4977373;28;20217;-77
2021/01/14 16:51:16;;;;;;;5.75;3.30;;;2.70;99.90;;;;;;4992042;28;20248;-76
2021/01/14 16:53:42;;;;;;;8.13;3.75;;;2.60;99.90;;;;;;4987928;28;20221;-76
2021/01/14 16:56:08;;;;;;;4.15;3.05;;;2.70;99.90;;;;;;4990585;28;20641;-75
2021/01/14 16:58:34;;;;;;;5.93;3.70;;;2.70;99.90;;;;;;4989032;28;20268;-76
2021/01/14 17:00:59;;;;;;;7.18;3.53;;;2.70;99.90;;;;;;4990947;28;20577;-76
2021/01/14 17:03:25;;;;;;;5.55;3.40;;;2.70;99.90;;;;;;4991830;28;20280;-76
2021/01/14 17:05:51;;;;;;;4.45;3.75;;;2.70;99.90;;;;;;4992088;28;20174;-76
2021/01/14 17:08:16;;;;;;;4.47;3.42;;;2.60;99.90;;;;;;4956079;28;20375;-76
2021/01/14 17:10:42;;;;;;;3.65;3.35;;;2.60;99.90;;;;;;4988705;28;20174;-77
2021/01/14 17:13:07;;;;;;;3.60;3.13;;;2.60;99.90;;;;;;4992306;28;20194;-76